sensor_id;sensor_type;location;lat;lon;timestamp;temperature;humidity
25616;DHT22;13482;48.234;13.006;2024-01-06T00:01:20;8.10;71.70
25616;DHT22;13482;48.234;13.006;2024-01-06T00:03:48;8.10;71.80
25616;DHT22;13482;48.234;13.006;2024-01-06T00:06:15;8.10;71.70
25616;DHT22;13482;48.234;13.006;2024-01-06T00:08:43;8.10;71.70
25616;DHT22;13482;48.234;13.006;2024-01-06T00:11:11;8.10;71.80
25616;DHT22;13482;48.234;13.006;2024-01-06T00:13:38;8.10;71.80
25616;DHT22;13482;48.234;13.006;2024-01-06T00:16:06;8.10;71.80
25616;DHT22;13482;48.234;13.006;2024-01-06T00:18:34;8.10;71.80
25616;DHT22;13482;48.234;13.006;2024-01-06T00:21:01;8.10;71.90
25616;DHT22;13482;48.234;13.006;2024-01-06T00:23:29;8.10;71.90
25616;DHT22;13482;48.234;13.006;2024-01-06T00:25:57;8.20;71.90
25616;DHT22;13482;48.234;13.006;2024-01-06T00:28:24;8.10;71.90
25616;DHT22;13482;48.234;13.006;2024-01-06T00:30:51;8.10;71.90
25616;DHT22;13482;48.234;13.006;2024-01-06T00:33:21;8.10;72.00
25616;DHT22;13482;48.234;13.006;2024-01-06T00:35:48;8.10;72.00
25616;DHT22;13482;48.234;13.006;2024-01-06T00:38:16;8.20;72.00
25616;DHT22;13482;48.234;13.006;2024-01-06T00:40:43;8.10;72.00
25616;DHT22;13482;48.234;13.006;2024-01-06T00:43:11;8.10;72.10
25616;DHT22;13482;48.234;13.006;2024-01-06T00:45:38;8.10;72.10
25616;DHT22;13482;48.234;13.006;2024-01-06T00:48:07;8.10;72.00
25616;DHT22;13482;48.234;13.006;2024-01-06T00:50:34;8.20;72.00
25616;DHT22;13482;48.234;13.006;2024-01-06T00:53:02;8.10;72.10
25616;DHT22;13482;48.234;13.006;2024-01-06T00:55:29;8.20;72.10
25616;DHT22;13482;48.234;13.006;2024-01-06T00:57:56;8.10;72.10
25616;DHT22;13482;48.234;13.006;2024-01-06T01:00:24;8.20;72.10
25616;DHT22;13482;48.234;13.006;2024-01-06T01:02:54;8.20;72.10
25616;DHT22;13482;48.234;13.006;2024-01-06T01:05:22;8.20;72.20
25616;DHT22;13482;48.234;13.006;2024-01-06T01:07:49;8.20;72.20
25616;DHT22;13482;48.234;13.006;2024-01-06T01:10:17;8.10;72.20
25616;DHT22;13482;48.234;13.006;2024-01-06T01:12:44;8.20;72.30
25616;DHT22;13482;48.234;13.006;2024-01-06T01:15:12;8.20;72.30
25616;DHT22;13482;48.234;13.006;2024-01-06T01:17:40;8.20;72.20
25616;DHT22;13482;48.234;13.006;2024-01-06T01:20:08;8.10;72.20
25616;DHT22;13482;48.234;13.006;2024-01-06T01:22:36;8.20;72.30
25616;DHT22;13482;48.234;13.006;2024-01-06T01:25:04;8.20;72.30
25616;DHT22;13482;48.234;13.006;2024-01-06T01:27:34;8.10;72.30
25616;DHT22;13482;48.234;13.006;2024-01-06T01:30:04;8.10;72.30
25616;DHT22;13482;48.234;13.006;2024-01-06T01:32:33;8.20;72.30
25616;DHT22;13482;48.234;13.006;2024-01-06T01:35:00;8.20;72.30
25616;DHT22;13482;48.234;13.006;2024-01-06T01:37:28;8.20;72.30
25616;DHT22;13482;48.234;13.006;2024-01-06T01:39:55;8.20;72.40
25616;DHT22;13482;48.234;13.006;2024-01-06T01:42:23;8.20;72.40
25616;DHT22;13482;48.234;13.006;2024-01-06T01:44:50;8.10;72.30
25616;DHT22;13482;48.234;13.006;2024-01-06T01:47:18;8.10;72.30
25616;DHT22;13482;48.234;13.006;2024-01-06T01:49:46;8.10;72.40
25616;DHT22;13482;48.234;13.006;2024-01-06T01:52:15;8.10;72.40
25616;DHT22;13482;48.234;13.006;2024-01-06T01:54:44;8.10;72.40
25616;DHT22;13482;48.234;13.006;2024-01-06T01:57:13;8.10;72.40
25616;DHT22;13482;48.234;13.006;2024-01-06T01:59:41;8.10;72.40
25616;DHT22;13482;48.234;13.006;2024-01-06T02:02:09;8.00;72.50
25616;DHT22;13482;48.234;13.006;2024-01-06T02:04:37;8.00;72.50
25616;DHT22;13482;48.234;13.006;2024-01-06T02:07:05;8.00;72.60
25616;DHT22;13482;48.234;13.006;2024-01-06T02:09:32;8.00;72.60
25616;DHT22;13482;48.234;13.006;2024-01-06T02:12:00;8.00;72.70
25616;DHT22;13482;48.234;13.006;2024-01-06T02:14:28;8.00;72.70
25616;DHT22;13482;48.234;13.006;2024-01-06T02:16:55;8.00;72.70
25616;DHT22;13482;48.234;13.006;2024-01-06T02:19:23;8.00;72.70
25616;DHT22;13482;48.234;13.006;2024-01-06T02:21:54;8.00;72.80
25616;DHT22;13482;48.234;13.006;2024-01-06T02:24:22;8.00;72.80
25616;DHT22;13482;48.234;13.006;2024-01-06T02:26:49;8.00;72.80
25616;DHT22;13482;48.234;13.006;2024-01-06T02:29:17;8.10;72.80
25616;DHT22;13482;48.234;13.006;2024-01-06T02:31:45;8.10;72.80
25616;DHT22;13482;48.234;13.006;2024-01-06T02:34:13;8.00;72.90
25616;DHT22;13482;48.234;13.006;2024-01-06T02:36:40;8.10;72.80
25616;DHT22;13482;48.234;13.006;2024-01-06T02:39:08;8.00;72.90
25616;DHT22;13482;48.234;13.006;2024-01-06T02:41:36;8.10;72.90
25616;DHT22;13482;48.234;13.006;2024-01-06T02:44:04;8.10;72.90
25616;DHT22;13482;48.234;13.006;2024-01-06T02:46:31;8.10;72.90
25616;DHT22;13482;48.234;13.006;2024-01-06T02:48:59;8.00;73.00
25616;DHT22;13482;48.234;13.006;2024-01-06T02:51:27;8.00;73.00
25616;DHT22;13482;48.234;13.006;2024-01-06T02:53:54;8.10;73.00
25616;DHT22;13482;48.234;13.006;2024-01-06T02:56:22;8.10;73.00
25616;DHT22;13482;48.234;13.006;2024-01-06T02:58:49;8.10;73.00
25616;DHT22;13482;48.234;13.006;2024-01-06T03:01:18;8.10;73.00
25616;DHT22;13482;48.234;13.006;2024-01-06T03:03:45;8.10;73.00
25616;DHT22;13482;48.234;13.006;2024-01-06T03:06:13;8.10;73.00
25616;DHT22;13482;48.234;13.006;2024-01-06T03:08:40;8.10;73.00
25616;DHT22;13482;48.234;13.006;2024-01-06T03:11:08;8.20;73.00
25616;DHT22;13482;48.234;13.006;2024-01-06T03:13:35;8.20;73.00
25616;DHT22;13482;48.234;13.006;2024-01-06T03:16:06;8.20;73.00
25616;DHT22;13482;48.234;13.006;2024-01-06T03:18:33;8.20;73.00
25616;DHT22;13482;48.234;13.006;2024-01-06T03:21:01;8.20;72.90
25616;DHT22;13482;48.234;13.006;2024-01-06T03:23:29;8.20;72.90
25616;DHT22;13482;48.234;13.006;2024-01-06T03:25:56;8.20;72.90
25616;DHT22;13482;48.234;13.006;2024-01-06T03:28:24;8.20;72.90
25616;DHT22;13482;48.234;13.006;2024-01-06T03:30:51;8.20;72.90
25616;DHT22;13482;48.234;13.006;2024-01-06T03:33:19;8.20;72.90
25616;DHT22;13482;48.234;13.006;2024-01-06T03:35:46;8.20;72.90
25616;DHT22;13482;48.234;13.006;2024-01-06T03:38:14;8.20;72.90
25616;DHT22;13482;48.234;13.006;2024-01-06T03:40:41;8.20;72.90
25616;DHT22;13482;48.234;13.006;2024-01-06T03:43:09;8.20;72.90
25616;DHT22;13482;48.234;13.006;2024-01-06T03:45:36;8.20;72.90
25616;DHT22;13482;48.234;13.006;2024-01-06T03:48:04;8.20;72.80
25616;DHT22;13482;48.234;13.006;2024-01-06T03:50:32;8.20;72.90
25616;DHT22;13482;48.234;13.006;2024-01-06T03:53:00;8.20;72.90
25616;DHT22;13482;48.234;13.006;2024-01-06T03:55:28;8.20;72.90
25616;DHT22;13482;48.234;13.006;2024-01-06T03:57:55;8.20;72.90
25616;DHT22;13482;48.234;13.006;2024-01-06T04:00:27;8.20;72.90
25616;DHT22;13482;48.234;13.006;2024-01-06T04:02:55;8.20;73.00
25616;DHT22;13482;48.234;13.006;2024-01-06T04:05:22;8.20;73.00
25616;DHT22;13482;48.234;13.006;2024-01-06T04:07:50;8.10;73.00
25616;DHT22;13482;48.234;13.006;2024-01-06T04:10:18;8.20;73.10
25616;DHT22;13482;48.234;13.006;2024-01-06T04:12:45;8.20;73.10
25616;DHT22;13482;48.234;13.006;2024-01-06T04:15:13;8.20;73.10
25616;DHT22;13482;48.234;13.006;2024-01-06T04:17:40;8.20;73.20
25616;DHT22;13482;48.234;13.006;2024-01-06T04:20:09;8.20;73.20
25616;DHT22;13482;48.234;13.006;2024-01-06T04:22:39;8.20;73.20
25616;DHT22;13482;48.234;13.006;2024-01-06T04:25:07;8.20;73.20
25616;DHT22;13482;48.234;13.006;2024-01-06T04:27:34;8.20;73.20
25616;DHT22;13482;48.234;13.006;2024-01-06T04:30:02;8.20;73.30
25616;DHT22;13482;48.234;13.006;2024-01-06T04:32:30;8.20;73.30
25616;DHT22;13482;48.234;13.006;2024-01-06T04:34:58;8.20;73.30
25616;DHT22;13482;48.234;13.006;2024-01-06T04:37:26;8.20;73.30
25616;DHT22;13482;48.234;13.006;2024-01-06T04:39:53;8.20;73.30
25616;DHT22;13482;48.234;13.006;2024-01-06T04:42:21;8.20;73.40
25616;DHT22;13482;48.234;13.006;2024-01-06T04:44:50;8.20;73.40
25616;DHT22;13482;48.234;13.006;2024-01-06T04:47:17;8.20;73.40
25616;DHT22;13482;48.234;13.006;2024-01-06T04:49:45;8.20;73.40
25616;DHT22;13482;48.234;13.006;2024-01-06T04:52:13;8.20;73.50
25616;DHT22;13482;48.234;13.006;2024-01-06T04:54:40;8.20;73.50
25616;DHT22;13482;48.234;13.006;2024-01-06T04:57:08;8.20;73.50
25616;DHT22;13482;48.234;13.006;2024-01-06T04:59:36;8.20;73.50
25616;DHT22;13482;48.234;13.006;2024-01-06T05:02:04;8.20;73.50
25616;DHT22;13482;48.234;13.006;2024-01-06T05:04:31;8.20;73.50
25616;DHT22;13482;48.234;13.006;2024-01-06T05:06:59;8.20;73.50
25616;DHT22;13482;48.234;13.006;2024-01-06T05:09:27;8.20;73.50
25616;DHT22;13482;48.234;13.006;2024-01-06T05:11:55;8.20;73.60
25616;DHT22;13482;48.234;13.006;2024-01-06T05:14:22;8.20;73.60
25616;DHT22;13482;48.234;13.006;2024-01-06T05:16:50;8.20;73.70
25616;DHT22;13482;48.234;13.006;2024-01-06T05:19:18;8.20;73.70
25616;DHT22;13482;48.234;13.006;2024-01-06T05:21:49;8.20;73.70
25616;DHT22;13482;48.234;13.006;2024-01-06T05:24:17;8.20;73.70
25616;DHT22;13482;48.234;13.006;2024-01-06T05:26:46;8.20;73.60
25616;DHT22;13482;48.234;13.006;2024-01-06T05:29:13;8.20;73.60
25616;DHT22;13482;48.234;13.006;2024-01-06T05:31:41;8.20;73.80
25616;DHT22;13482;48.234;13.006;2024-01-06T05:34:09;8.20;73.90
25616;DHT22;13482;48.234;13.006;2024-01-06T05:36:36;8.20;74.00
25616;DHT22;13482;48.234;13.006;2024-01-06T05:39:04;8.20;73.90
25616;DHT22;13482;48.234;13.006;2024-01-06T05:41:38;8.20;74.00
25616;DHT22;13482;48.234;13.006;2024-01-06T05:44:06;8.20;74.10
25616;DHT22;13482;48.234;13.006;2024-01-06T05:46:35;8.20;74.00
25616;DHT22;13482;48.234;13.006;2024-01-06T05:49:02;8.30;74.10
25616;DHT22;13482;48.234;13.006;2024-01-06T05:51:30;8.30;74.00
25616;DHT22;13482;48.234;13.006;2024-01-06T05:53:58;8.30;74.10
25616;DHT22;13482;48.234;13.006;2024-01-06T05:56:26;8.30;74.10
25616;DHT22;13482;48.234;13.006;2024-01-06T05:58:54;8.30;74.10
25616;DHT22;13482;48.234;13.006;2024-01-06T06:01:22;8.30;74.10
25616;DHT22;13482;48.234;13.006;2024-01-06T06:03:50;8.30;74.10
25616;DHT22;13482;48.234;13.006;2024-01-06T06:06:18;8.30;74.10
25616;DHT22;13482;48.234;13.006;2024-01-06T06:08:47;8.30;74.10
25616;DHT22;13482;48.234;13.006;2024-01-06T06:11:15;8.30;74.20
25616;DHT22;13482;48.234;13.006;2024-01-06T06:13:43;8.30;74.20
25616;DHT22;13482;48.234;13.006;2024-01-06T06:16:11;8.30;74.20
25616;DHT22;13482;48.234;13.006;2024-01-06T06:18:41;8.30;74.30
25616;DHT22;13482;48.234;13.006;2024-01-06T06:21:09;8.40;74.30
25616;DHT22;13482;48.234;13.006;2024-01-06T06:23:37;8.40;74.30
25616;DHT22;13482;48.234;13.006;2024-01-06T06:26:08;8.40;74.20
25616;DHT22;13482;48.234;13.006;2024-01-06T06:28:36;8.40;74.30
25616;DHT22;13482;48.234;13.006;2024-01-06T06:31:03;8.40;74.30
25616;DHT22;13482;48.234;13.006;2024-01-06T06:33:31;8.40;74.30
25616;DHT22;13482;48.234;13.006;2024-01-06T06:36:01;8.40;74.30
25616;DHT22;13482;48.234;13.006;2024-01-06T06:38:28;8.40;74.30
25616;DHT22;13482;48.234;13.006;2024-01-06T06:40:56;8.40;74.30
25616;DHT22;13482;48.234;13.006;2024-01-06T06:43:24;8.40;74.30
25616;DHT22;13482;48.234;13.006;2024-01-06T06:45:51;8.40;74.30
25616;DHT22;13482;48.234;13.006;2024-01-06T06:48:19;8.40;74.30
25616;DHT22;13482;48.234;13.006;2024-01-06T06:50:46;8.40;74.40
25616;DHT22;13482;48.234;13.006;2024-01-06T06:53:13;8.40;74.40
25616;DHT22;13482;48.234;13.006;2024-01-06T06:55:41;8.50;74.40
25616;DHT22;13482;48.234;13.006;2024-01-06T06:58:09;8.50;74.40
25616;DHT22;13482;48.234;13.006;2024-01-06T07:00:36;8.50;74.40
25616;DHT22;13482;48.234;13.006;2024-01-06T07:03:05;8.50;74.40
25616;DHT22;13482;48.234;13.006;2024-01-06T07:05:32;8.50;74.40
25616;DHT22;13482;48.234;13.006;2024-01-06T07:08:01;8.50;74.50
25616;DHT22;13482;48.234;13.006;2024-01-06T07:10:28;8.50;74.40
25616;DHT22;13482;48.234;13.006;2024-01-06T07:12:56;8.50;74.40
25616;DHT22;13482;48.234;13.006;2024-01-06T07:15:23;8.50;74.40
25616;DHT22;13482;48.234;13.006;2024-01-06T07:17:51;8.50;74.40
25616;DHT22;13482;48.234;13.006;2024-01-06T07:20:19;8.50;74.50
25616;DHT22;13482;48.234;13.006;2024-01-06T07:22:46;8.60;74.50
25616;DHT22;13482;48.234;13.006;2024-01-06T07:25:14;8.50;74.50
25616;DHT22;13482;48.234;13.006;2024-01-06T07:27:41;8.60;74.50
25616;DHT22;13482;48.234;13.006;2024-01-06T07:30:09;8.60;74.50
25616;DHT22;13482;48.234;13.006;2024-01-06T07:32:37;8.60;74.60
25616;DHT22;13482;48.234;13.006;2024-01-06T07:35:04;8.60;74.60
25616;DHT22;13482;48.234;13.006;2024-01-06T07:37:34;8.60;74.60
25616;DHT22;13482;48.234;13.006;2024-01-06T07:40:01;8.60;74.60
25616;DHT22;13482;48.234;13.006;2024-01-06T07:42:29;8.60;74.60
25616;DHT22;13482;48.234;13.006;2024-01-06T07:44:56;8.70;74.60
25616;DHT22;13482;48.234;13.006;2024-01-06T07:47:24;8.70;74.60
25616;DHT22;13482;48.234;13.006;2024-01-06T07:49:51;8.70;74.60
25616;DHT22;13482;48.234;13.006;2024-01-06T07:52:20;8.70;74.60
25616;DHT22;13482;48.234;13.006;2024-01-06T07:54:47;8.80;74.60
25616;DHT22;13482;48.234;13.006;2024-01-06T07:57:15;8.80;74.60
25616;DHT22;13482;48.234;13.006;2024-01-06T07:59:43;8.80;74.60
25616;DHT22;13482;48.234;13.006;2024-01-06T08:02:10;8.80;74.70
25616;DHT22;13482;48.234;13.006;2024-01-06T08:04:37;8.80;74.50
25616;DHT22;13482;48.234;13.006;2024-01-06T08:07:05;8.80;74.60
25616;DHT22;13482;48.234;13.006;2024-01-06T08:09:33;8.80;74.60
25616;DHT22;13482;48.234;13.006;2024-01-06T08:12:01;8.90;74.60
25616;DHT22;13482;48.234;13.006;2024-01-06T08:14:30;8.90;74.60
25616;DHT22;13482;48.234;13.006;2024-01-06T08:16:57;8.90;74.60
25616;DHT22;13482;48.234;13.006;2024-01-06T08:19:24;8.90;74.60
25616;DHT22;13482;48.234;13.006;2024-01-06T08:21:52;8.90;74.70
25616;DHT22;13482;48.234;13.006;2024-01-06T08:24:20;8.90;74.60
25616;DHT22;13482;48.234;13.006;2024-01-06T08:26:47;9.00;74.60
25616;DHT22;13482;48.234;13.006;2024-01-06T08:29:15;9.00;74.70
25616;DHT22;13482;48.234;13.006;2024-01-06T08:31:43;9.00;74.70
25616;DHT22;13482;48.234;13.006;2024-01-06T08:34:10;9.00;74.80
25616;DHT22;13482;48.234;13.006;2024-01-06T08:36:38;9.00;74.80
25616;DHT22;13482;48.234;13.006;2024-01-06T08:39:06;9.00;74.80
25616;DHT22;13482;48.234;13.006;2024-01-06T08:41:35;9.00;74.70
25616;DHT22;13482;48.234;13.006;2024-01-06T08:44:02;9.10;74.80
25616;DHT22;13482;48.234;13.006;2024-01-06T08:46:31;9.10;74.80
25616;DHT22;13482;48.234;13.006;2024-01-06T08:48:58;9.10;74.80
25616;DHT22;13482;48.234;13.006;2024-01-06T08:51:27;9.10;74.80
25616;DHT22;13482;48.234;13.006;2024-01-06T08:53:54;9.10;74.90
25616;DHT22;13482;48.234;13.006;2024-01-06T08:56:22;9.10;74.90
25616;DHT22;13482;48.234;13.006;2024-01-06T08:58:49;9.10;74.90
25616;DHT22;13482;48.234;13.006;2024-01-06T09:01:17;9.20;74.90
25616;DHT22;13482;48.234;13.006;2024-01-06T09:03:44;9.20;75.00
25616;DHT22;13482;48.234;13.006;2024-01-06T09:06:12;9.20;75.00
25616;DHT22;13482;48.234;13.006;2024-01-06T09:08:40;9.20;75.00
25616;DHT22;13482;48.234;13.006;2024-01-06T09:11:08;9.20;75.00
25616;DHT22;13482;48.234;13.006;2024-01-06T09:13:35;9.20;75.00
25616;DHT22;13482;48.234;13.006;2024-01-06T09:16:03;9.20;75.10
25616;DHT22;13482;48.234;13.006;2024-01-06T09:18:30;9.30;75.10
25616;DHT22;13482;48.234;13.006;2024-01-06T09:20:59;9.30;75.10
25616;DHT22;13482;48.234;13.006;2024-01-06T09:23:26;9.30;75.10
25616;DHT22;13482;48.234;13.006;2024-01-06T09:25:54;9.30;75.00
25616;DHT22;13482;48.234;13.006;2024-01-06T09:28:21;9.30;75.00
25616;DHT22;13482;48.234;13.006;2024-01-06T09:30:49;9.40;75.00
25616;DHT22;13482;48.234;13.006;2024-01-06T09:33:19;9.40;75.00
25616;DHT22;13482;48.234;13.006;2024-01-06T09:35:47;9.40;74.90
25616;DHT22;13482;48.234;13.006;2024-01-06T09:38:14;9.40;74.80
25616;DHT22;13482;48.234;13.006;2024-01-06T09:40:43;9.40;74.80
25616;DHT22;13482;48.234;13.006;2024-01-06T09:43:11;9.40;74.80
25616;DHT22;13482;48.234;13.006;2024-01-06T09:45:39;9.40;74.80
25616;DHT22;13482;48.234;13.006;2024-01-06T09:48:13;9.40;74.80
25616;DHT22;13482;48.234;13.006;2024-01-06T09:50:43;9.40;74.80
25616;DHT22;13482;48.234;13.006;2024-01-06T09:53:13;9.40;74.80
25616;DHT22;13482;48.234;13.006;2024-01-06T09:55:41;9.40;75.20
25616;DHT22;13482;48.234;13.006;2024-01-06T09:58:10;9.40;74.50
25616;DHT22;13482;48.234;13.006;2024-01-06T10:00:37;9.40;74.60
25616;DHT22;13482;48.234;13.006;2024-01-06T10:03:05;9.40;74.70
25616;DHT22;13482;48.234;13.006;2024-01-06T10:05:34;9.40;74.80
25616;DHT22;13482;48.234;13.006;2024-01-06T10:08:03;9.40;74.90
25616;DHT22;13482;48.234;13.006;2024-01-06T10:10:33;9.40;74.90
25616;DHT22;13482;48.234;13.006;2024-01-06T10:13:01;9.40;75.00
25616;DHT22;13482;48.234;13.006;2024-01-06T10:15:28;9.40;74.90
25616;DHT22;13482;48.234;13.006;2024-01-06T10:17:56;9.40;75.00
25616;DHT22;13482;48.234;13.006;2024-01-06T10:20:25;9.50;74.90
25616;DHT22;13482;48.234;13.006;2024-01-06T10:22:52;9.50;74.90
25616;DHT22;13482;48.234;13.006;2024-01-06T10:25:23;9.50;75.00
25616;DHT22;13482;48.234;13.006;2024-01-06T10:27:52;9.50;75.00
25616;DHT22;13482;48.234;13.006;2024-01-06T10:30:21;9.50;75.00
25616;DHT22;13482;48.234;13.006;2024-01-06T10:32:49;9.50;75.00
25616;DHT22;13482;48.234;13.006;2024-01-06T10:35:18;9.50;75.00
25616;DHT22;13482;48.234;13.006;2024-01-06T10:37:47;9.50;75.00
25616;DHT22;13482;48.234;13.006;2024-01-06T10:40:16;9.50;75.10
25616;DHT22;13482;48.234;13.006;2024-01-06T10:42:45;9.50;75.10
25616;DHT22;13482;48.234;13.006;2024-01-06T10:45:14;9.60;75.10
25616;DHT22;13482;48.234;13.006;2024-01-06T10:47:43;9.60;75.10
25616;DHT22;13482;48.234;13.006;2024-01-06T10:50:11;9.60;75.00
25616;DHT22;13482;48.234;13.006;2024-01-06T10:52:41;9.50;75.00
25616;DHT22;13482;48.234;13.006;2024-01-06T10:55:10;9.50;74.80
25616;DHT22;13482;48.234;13.006;2024-01-06T10:57:38;9.50;74.80
25616;DHT22;13482;48.234;13.006;2024-01-06T11:00:08;9.50;74.80
25616;DHT22;13482;48.234;13.006;2024-01-06T11:02:38;9.40;74.80
25616;DHT22;13482;48.234;13.006;2024-01-06T11:05:06;9.40;74.90
25616;DHT22;13482;48.234;13.006;2024-01-06T11:07:35;9.40;74.90
25616;DHT22;13482;48.234;13.006;2024-01-06T11:10:15;9.40;74.90
25616;DHT22;13482;48.234;13.006;2024-01-06T11:12:43;9.40;75.10
25616;DHT22;13482;48.234;13.006;2024-01-06T11:18:34;9.30;75.20
25616;DHT22;13482;48.234;13.006;2024-01-06T11:23:46;9.30;74.80
25616;DHT22;13482;48.234;13.006;2024-01-06T11:26:14;9.20;74.80
25616;DHT22;13482;48.234;13.006;2024-01-06T11:28:46;9.20;74.90
25616;DHT22;13482;48.234;13.006;2024-01-06T11:31:14;9.20;74.90
25616;DHT22;13482;48.234;13.006;2024-01-06T11:33:46;9.10;75.00
25616;DHT22;13482;48.234;13.006;2024-01-06T11:36:16;9.10;75.00
25616;DHT22;13482;48.234;13.006;2024-01-06T11:38:44;9.10;74.90
25616;DHT22;13482;48.234;13.006;2024-01-06T11:41:49;9.10;75.00
25616;DHT22;13482;48.234;13.006;2024-01-06T11:44:23;9.10;75.20
25616;DHT22;13482;48.234;13.006;2024-01-06T11:46:51;9.10;74.90
25616;DHT22;13482;48.234;13.006;2024-01-06T11:49:26;9.10;74.90
25616;DHT22;13482;48.234;13.006;2024-01-06T11:51:58;9.00;75.00
25616;DHT22;13482;48.234;13.006;2024-01-06T11:54:26;9.00;75.00
25616;DHT22;13482;48.234;13.006;2024-01-06T11:56:53;9.00;75.10
25616;DHT22;13482;48.234;13.006;2024-01-06T11:59:23;9.00;75.10
25616;DHT22;13482;48.234;13.006;2024-01-06T12:01:51;9.00;75.10
25616;DHT22;13482;48.234;13.006;2024-01-06T12:04:18;9.00;75.20
25616;DHT22;13482;48.234;13.006;2024-01-06T12:06:46;9.00;75.20
25616;DHT22;13482;48.234;13.006;2024-01-06T12:09:17;9.00;75.20
25616;DHT22;13482;48.234;13.006;2024-01-06T12:11:46;9.10;75.20
25616;DHT22;13482;48.234;13.006;2024-01-06T12:14:13;9.00;75.10
25616;DHT22;13482;48.234;13.006;2024-01-06T12:16:43;9.00;75.10
25616;DHT22;13482;48.234;13.006;2024-01-06T12:19:10;9.10;75.20
25616;DHT22;13482;48.234;13.006;2024-01-06T12:21:38;9.10;75.20
25616;DHT22;13482;48.234;13.006;2024-01-06T12:24:16;9.10;75.20
25616;DHT22;13482;48.234;13.006;2024-01-06T12:26:45;9.10;75.40
25616;DHT22;13482;48.234;13.006;2024-01-06T12:29:13;9.10;75.20
25616;DHT22;13482;48.234;13.006;2024-01-06T12:31:41;9.10;75.20
25616;DHT22;13482;48.234;13.006;2024-01-06T12:34:09;9.10;75.20
25616;DHT22;13482;48.234;13.006;2024-01-06T12:36:38;9.10;75.30
25616;DHT22;13482;48.234;13.006;2024-01-06T12:39:11;9.10;75.20
25616;DHT22;13482;48.234;13.006;2024-01-06T12:41:41;9.20;75.30
25616;DHT22;13482;48.234;13.006;2024-01-06T12:44:10;9.20;75.30
25616;DHT22;13482;48.234;13.006;2024-01-06T12:46:37;9.20;75.30
25616;DHT22;13482;48.234;13.006;2024-01-06T12:49:05;9.20;75.20
25616;DHT22;13482;48.234;13.006;2024-01-06T12:51:33;9.20;75.20
25616;DHT22;13482;48.234;13.006;2024-01-06T12:54:00;9.20;75.10
25616;DHT22;13482;48.234;13.006;2024-01-06T12:56:27;9.20;75.10
25616;DHT22;13482;48.234;13.006;2024-01-06T12:58:55;9.20;75.10
25616;DHT22;13482;48.234;13.006;2024-01-06T13:01:23;9.20;75.10
25616;DHT22;13482;48.234;13.006;2024-01-06T13:03:50;9.20;75.10
25616;DHT22;13482;48.234;13.006;2024-01-06T13:06:25;9.20;75.10
25616;DHT22;13482;48.234;13.006;2024-01-06T13:09:05;9.20;75.10
25616;DHT22;13482;48.234;13.006;2024-01-06T13:11:40;9.20;75.00
25616;DHT22;13482;48.234;13.006;2024-01-06T13:14:21;9.20;75.10
25616;DHT22;13482;48.234;13.006;2024-01-06T13:16:55;9.20;75.00
25616;DHT22;13482;48.234;13.006;2024-01-06T13:19:28;9.20;75.00
25616;DHT22;13482;48.234;13.006;2024-01-06T13:22:10;9.20;75.10
25616;DHT22;13482;48.234;13.006;2024-01-06T13:24:43;9.20;75.20
25616;DHT22;13482;48.234;13.006;2024-01-06T13:27:16;9.20;75.10
25616;DHT22;13482;48.234;13.006;2024-01-06T13:30:00;9.20;75.10
25616;DHT22;13482;48.234;13.006;2024-01-06T13:32:39;9.20;75.10
25616;DHT22;13482;48.234;13.006;2024-01-06T13:35:12;9.20;75.10
25616;DHT22;13482;48.234;13.006;2024-01-06T13:37:42;9.20;75.10
25616;DHT22;13482;48.234;13.006;2024-01-06T13:40:20;9.20;75.10
25616;DHT22;13482;48.234;13.006;2024-01-06T13:42:57;9.20;75.20
25616;DHT22;13482;48.234;13.006;2024-01-06T13:45:31;9.20;75.10
25616;DHT22;13482;48.234;13.006;2024-01-06T13:48:23;9.20;75.10
25616;DHT22;13482;48.234;13.006;2024-01-06T13:51:03;9.20;75.10
25616;DHT22;13482;48.234;13.006;2024-01-06T13:53:42;9.20;75.10
25616;DHT22;13482;48.234;13.006;2024-01-06T13:56:20;9.20;75.00
25616;DHT22;13482;48.234;13.006;2024-01-06T13:58:54;9.20;75.10
25616;DHT22;13482;48.234;13.006;2024-01-06T14:01:26;9.20;75.00
25616;DHT22;13482;48.234;13.006;2024-01-06T14:04:11;9.10;75.00
25616;DHT22;13482;48.234;13.006;2024-01-06T14:06:47;9.10;75.00
25616;DHT22;13482;48.234;13.006;2024-01-06T14:09:33;9.10;75.00
25616;DHT22;13482;48.234;13.006;2024-01-06T14:59:56;8.90;74.80
25616;DHT22;13482;48.234;13.006;2024-01-06T15:02:29;8.80;74.80
25616;DHT22;13482;48.234;13.006;2024-01-06T15:05:00;8.80;75.00
25616;DHT22;13482;48.234;13.006;2024-01-06T15:07:34;8.80;75.00
25616;DHT22;13482;48.234;13.006;2024-01-06T15:10:07;8.70;75.00
25616;DHT22;13482;48.234;13.006;2024-01-06T15:12:38;8.80;75.00
25616;DHT22;13482;48.234;13.006;2024-01-06T15:15:12;8.70;75.10
25616;DHT22;13482;48.234;13.006;2024-01-06T15:17:47;8.70;75.10
25616;DHT22;13482;48.234;13.006;2024-01-06T15:20:22;8.70;75.10
25616;DHT22;13482;48.234;13.006;2024-01-06T15:22:54;8.70;75.10
25616;DHT22;13482;48.234;13.006;2024-01-06T15:25:29;8.70;75.00
25616;DHT22;13482;48.234;13.006;2024-01-06T15:28:12;8.70;75.00
25616;DHT22;13482;48.234;13.006;2024-01-06T15:30:47;8.70;75.10
25616;DHT22;13482;48.234;13.006;2024-01-06T15:33:20;8.70;75.00
25616;DHT22;13482;48.234;13.006;2024-01-06T15:36:01;8.70;74.90
25616;DHT22;13482;48.234;13.006;2024-01-06T15:38:37;8.70;75.00
25616;DHT22;13482;48.234;13.006;2024-01-06T15:41:23;8.70;75.00
25616;DHT22;13482;48.234;13.006;2024-01-06T15:44:13;8.60;75.00
25616;DHT22;13482;48.234;13.006;2024-01-06T15:46:47;8.60;74.90
25616;DHT22;13482;48.234;13.006;2024-01-06T15:49:33;8.60;74.90
25616;DHT22;13482;48.234;13.006;2024-01-06T15:52:08;8.60;74.90
25616;DHT22;13482;48.234;13.006;2024-01-06T15:54:38;8.60;74.90
25616;DHT22;13482;48.234;13.006;2024-01-06T15:57:26;8.60;75.00
25616;DHT22;13482;48.234;13.006;2024-01-06T16:00:07;8.60;74.90
25616;DHT22;13482;48.234;13.006;2024-01-06T16:02:41;8.60;75.00
25616;DHT22;13482;48.234;13.006;2024-01-06T16:05:14;8.60;75.00
25616;DHT22;13482;48.234;13.006;2024-01-06T16:08:00;8.50;75.00
25616;DHT22;13482;48.234;13.006;2024-01-06T16:10:34;8.50;74.90
25616;DHT22;13482;48.234;13.006;2024-01-06T16:13:03;8.50;74.90
25616;DHT22;13482;48.234;13.006;2024-01-06T16:15:39;8.50;75.00
25616;DHT22;13482;48.234;13.006;2024-01-06T16:18:28;8.50;75.00
25616;DHT22;13482;48.234;13.006;2024-01-06T16:21:08;8.50;75.00
25616;DHT22;13482;48.234;13.006;2024-01-06T16:23:56;8.40;74.90
25616;DHT22;13482;48.234;13.006;2024-01-06T16:26:46;8.40;74.90
25616;DHT22;13482;48.234;13.006;2024-01-06T16:29:24;8.40;74.90
25616;DHT22;13482;48.234;13.006;2024-01-06T16:32:00;8.40;75.00
25616;DHT22;13482;48.234;13.006;2024-01-06T16:34:46;8.30;74.90
25616;DHT22;13482;48.234;13.006;2024-01-06T16:37:22;8.30;75.00
25616;DHT22;13482;48.234;13.006;2024-01-06T16:39:54;8.30;74.90